sensor_id;sensor_type;location;lat;lon;timestamp;P1;durP1;ratioP1;P2;durP2;ratioP2
12312;SDS011;6220;53.580;9.758;2023-09-19T00:01:06;3.97;;;1.70;;
12312;SDS011;6220;53.580;9.758;2023-09-19T00:03:37;2.53;;;1.60;;
12312;SDS011;6220;53.580;9.758;2023-09-19T00:06:03;2.87;;;1.37;;
12312;SDS011;6220;53.580;9.758;2023-09-19T00:08:33;2.17;;;1.60;;
12312;SDS011;6220;53.580;9.758;2023-09-19T00:10:58;4.53;;;1.93;;
12312;SDS011;6220;53.580;9.758;2023-09-19T00:13:28;3.57;;;2.10;;
12312;SDS011;6220;53.580;9.758;2023-09-19T00:15:55;3.37;;;1.90;;
12312;SDS011;6220;53.580;9.758;2023-09-19T00:18:23;3.90;;;1.90;;
12312;SDS011;6220;53.580;9.758;2023-09-19T00:20:56;2.53;;;1.80;;
12312;SDS011;6220;53.580;9.758;2023-09-19T00:23:22;4.83;;;2.23;;
12312;SDS011;6220;53.580;9.758;2023-09-19T00:25:49;4.37;;;2.27;;
12312;SDS011;6220;53.580;9.758;2023-09-19T00:28:16;4.40;;;2.10;;
12312;SDS011;6220;53.580;9.758;2023-09-19T00:30:43;5.10;;;2.20;;
12312;SDS011;6220;53.580;9.758;2023-09-19T00:33:09;3.63;;;2.00;;
12312;SDS011;6220;53.580;9.758;2023-09-19T00:35:36;3.70;;;1.90;;
12312;SDS011;6220;53.580;9.758;2023-09-19T00:38:02;3.20;;;1.90;;
12312;SDS011;6220;53.580;9.758;2023-09-19T00:40:28;1.90;;;1.60;;
12312;SDS011;6220;53.580;9.758;2023-09-19T00:42:57;4.17;;;2.07;;
12312;SDS011;6220;53.580;9.758;2023-09-19T00:45:24;4.67;;;2.13;;
12312;SDS011;6220;53.580;9.758;2023-09-19T00:47:50;3.80;;;1.90;;
12312;SDS011;6220;53.580;9.758;2023-09-19T00:50:16;7.50;;;2.50;;
12312;SDS011;6220;53.580;9.758;2023-09-19T00:52:48;4.20;;;2.40;;
12312;SDS011;6220;53.580;9.758;2023-09-19T00:55:15;4.97;;;2.57;;
12312;SDS011;6220;53.580;9.758;2023-09-19T00:57:41;5.60;;;2.73;;
12312;SDS011;6220;53.580;9.758;2023-09-19T01:00:07;4.60;;;2.33;;
12312;SDS011;6220;53.580;9.758;2023-09-19T01:02:37;6.77;;;2.73;;
12312;SDS011;6220;53.580;9.758;2023-09-19T01:05:02;2.13;;;1.93;;
12312;SDS011;6220;53.580;9.758;2023-09-19T01:07:29;3.73;;;2.07;;
12312;SDS011;6220;53.580;9.758;2023-09-19T01:09:56;4.30;;;2.67;;
12312;SDS011;6220;53.580;9.758;2023-09-19T01:12:28;5.90;;;2.63;;
12312;SDS011;6220;53.580;9.758;2023-09-19T01:15:04;4.77;;;2.00;;
12312;SDS011;6220;53.580;9.758;2023-09-19T01:17:35;5.20;;;2.07;;
12312;SDS011;6220;53.580;9.758;2023-09-19T01:20:16;6.90;;;2.43;;
12312;SDS011;6220;53.580;9.758;2023-09-19T01:31:07;3.27;;;2.33;;
12312;SDS011;6220;53.580;9.758;2023-09-19T01:36:32;4.07;;;2.30;;
12312;SDS011;6220;53.580;9.758;2023-09-19T01:39:00;5.17;;;2.27;;
12312;SDS011;6220;53.580;9.758;2023-09-19T01:41:33;4.70;;;2.20;;
12312;SDS011;6220;53.580;9.758;2023-09-19T01:44:03;3.93;;;2.20;;
12312;SDS011;6220;53.580;9.758;2023-09-19T01:46:35;3.73;;;2.10;;
12312;SDS011;6220;53.580;9.758;2023-09-19T01:49:21;3.50;;;2.30;;
12312;SDS011;6220;53.580;9.758;2023-09-19T01:54:26;5.07;;;2.60;;
12312;SDS011;6220;53.580;9.758;2023-09-19T01:57:07;7.30;;;2.47;;
12312;SDS011;6220;53.580;9.758;2023-09-19T01:59:40;4.67;;;2.10;;
12312;SDS011;6220;53.580;9.758;2023-09-19T02:02:08;4.63;;;2.23;;
12312;SDS011;6220;53.580;9.758;2023-09-19T02:04:35;3.27;;;2.30;;
12312;SDS011;6220;53.580;9.758;2023-09-19T02:07:00;3.73;;;1.80;;
12312;SDS011;6220;53.580;9.758;2023-09-19T02:09:26;5.93;;;2.03;;
12312;SDS011;6220;53.580;9.758;2023-09-19T02:11:52;3.67;;;1.83;;
12312;SDS011;6220;53.580;9.758;2023-09-19T02:14:17;4.80;;;2.50;;
12312;SDS011;6220;53.580;9.758;2023-09-19T02:16:44;5.13;;;2.10;;
12312;SDS011;6220;53.580;9.758;2023-09-19T02:19:10;5.67;;;1.83;;
12312;SDS011;6220;53.580;9.758;2023-09-19T02:21:36;5.03;;;2.20;;
12312;SDS011;6220;53.580;9.758;2023-09-19T02:24:05;4.47;;;2.10;;
12312;SDS011;6220;53.580;9.758;2023-09-19T02:26:32;3.77;;;1.90;;
12312;SDS011;6220;53.580;9.758;2023-09-19T02:29:01;6.70;;;2.70;;
12312;SDS011;6220;53.580;9.758;2023-09-19T02:31:29;5.70;;;2.97;;
12312;SDS011;6220;53.580;9.758;2023-09-19T02:33:55;6.43;;;2.57;;
12312;SDS011;6220;53.580;9.758;2023-09-19T02:36:21;6.77;;;2.80;;
12312;SDS011;6220;53.580;9.758;2023-09-19T02:38:48;6.43;;;2.43;;
12312;SDS011;6220;53.580;9.758;2023-09-19T02:41:14;7.30;;;2.93;;
12312;SDS011;6220;53.580;9.758;2023-09-19T02:43:39;5.60;;;2.63;;
12312;SDS011;6220;53.580;9.758;2023-09-19T02:46:05;6.07;;;2.40;;
12312;SDS011;6220;53.580;9.758;2023-09-19T02:48:30;7.70;;;3.00;;
12312;SDS011;6220;53.580;9.758;2023-09-19T02:50:57;7.43;;;2.53;;
12312;SDS011;6220;53.580;9.758;2023-09-19T02:53:22;6.17;;;2.70;;
12312;SDS011;6220;53.580;9.758;2023-09-19T02:55:49;3.90;;;2.47;;
12312;SDS011;6220;53.580;9.758;2023-09-19T02:58:14;4.00;;;2.70;;
12312;SDS011;6220;53.580;9.758;2023-09-19T03:00:40;6.03;;;2.73;;
12312;SDS011;6220;53.580;9.758;2023-09-19T03:03:07;5.77;;;2.63;;
12312;SDS011;6220;53.580;9.758;2023-09-19T03:05:33;6.50;;;2.57;;
12312;SDS011;6220;53.580;9.758;2023-09-19T03:07:59;8.53;;;2.77;;
12312;SDS011;6220;53.580;9.758;2023-09-19T03:10:28;4.93;;;2.23;;
12312;SDS011;6220;53.580;9.758;2023-09-19T03:12:55;4.20;;;2.30;;
12312;SDS011;6220;53.580;9.758;2023-09-19T03:15:20;5.83;;;2.50;;
12312;SDS011;6220;53.580;9.758;2023-09-19T03:17:47;5.07;;;2.10;;
12312;SDS011;6220;53.580;9.758;2023-09-19T03:20:13;4.23;;;2.17;;
12312;SDS011;6220;53.580;9.758;2023-09-19T03:22:42;5.43;;;2.30;;
12312;SDS011;6220;53.580;9.758;2023-09-19T03:25:08;6.17;;;2.30;;
12312;SDS011;6220;53.580;9.758;2023-09-19T03:27:36;6.10;;;2.70;;
12312;SDS011;6220;53.580;9.758;2023-09-19T03:30:03;6.27;;;2.33;;
12312;SDS011;6220;53.580;9.758;2023-09-19T03:32:33;4.33;;;2.40;;
12312;SDS011;6220;53.580;9.758;2023-09-19T03:34:59;8.77;;;2.53;;
12312;SDS011;6220;53.580;9.758;2023-09-19T03:37:24;6.13;;;2.07;;
12312;SDS011;6220;53.580;9.758;2023-09-19T03:39:51;3.40;;;2.27;;
12312;SDS011;6220;53.580;9.758;2023-09-19T03:42:16;4.87;;;2.10;;
12312;SDS011;6220;53.580;9.758;2023-09-19T03:44:42;4.67;;;2.03;;
12312;SDS011;6220;53.580;9.758;2023-09-19T03:47:07;5.23;;;2.47;;
12312;SDS011;6220;53.580;9.758;2023-09-19T03:49:33;7.87;;;2.27;;
12312;SDS011;6220;53.580;9.758;2023-09-19T03:51:59;4.70;;;2.20;;
12312;SDS011;6220;53.580;9.758;2023-09-19T03:54:24;4.97;;;2.17;;
12312;SDS011;6220;53.580;9.758;2023-09-19T03:56:49;4.13;;;2.00;;
12312;SDS011;6220;53.580;9.758;2023-09-19T03:59:15;5.43;;;2.13;;
12312;SDS011;6220;53.580;9.758;2023-09-19T04:01:41;5.17;;;2.13;;
12312;SDS011;6220;53.580;9.758;2023-09-19T04:04:07;6.27;;;2.70;;
12312;SDS011;6220;53.580;9.758;2023-09-19T04:06:34;4.53;;;2.43;;
12312;SDS011;6220;53.580;9.758;2023-09-19T04:09:02;5.13;;;2.13;;
12312;SDS011;6220;53.580;9.758;2023-09-19T04:11:31;4.93;;;2.10;;
12312;SDS011;6220;53.580;9.758;2023-09-19T04:13:59;6.00;;;2.13;;
12312;SDS011;6220;53.580;9.758;2023-09-19T04:16:24;4.63;;;2.23;;
12312;SDS011;6220;53.580;9.758;2023-09-19T04:18:50;4.23;;;2.10;;
12312;SDS011;6220;53.580;9.758;2023-09-19T04:21:15;4.40;;;2.20;;
12312;SDS011;6220;53.580;9.758;2023-09-19T04:23:42;9.73;;;2.53;;
12312;SDS011;6220;53.580;9.758;2023-09-19T04:26:08;5.50;;;2.30;;
12312;SDS011;6220;53.580;9.758;2023-09-19T04:28:33;6.73;;;2.23;;
12312;SDS011;6220;53.580;9.758;2023-09-19T04:30:59;7.30;;;2.30;;
12312;SDS011;6220;53.580;9.758;2023-09-19T04:33:25;4.90;;;1.93;;
12312;SDS011;6220;53.580;9.758;2023-09-19T04:35:52;5.83;;;2.00;;
12312;SDS011;6220;53.580;9.758;2023-09-19T04:38:18;5.27;;;2.17;;
12312;SDS011;6220;53.580;9.758;2023-09-19T04:40:44;6.40;;;2.43;;
12312;SDS011;6220;53.580;9.758;2023-09-19T04:43:10;3.90;;;2.10;;
12312;SDS011;6220;53.580;9.758;2023-09-19T04:45:36;6.70;;;2.13;;
12312;SDS011;6220;53.580;9.758;2023-09-19T04:48:05;4.73;;;2.30;;
12312;SDS011;6220;53.580;9.758;2023-09-19T04:50:32;4.27;;;2.10;;
12312;SDS011;6220;53.580;9.758;2023-09-19T04:52:59;6.37;;;2.47;;
12312;SDS011;6220;53.580;9.758;2023-09-19T04:55:25;4.43;;;2.10;;
12312;SDS011;6220;53.580;9.758;2023-09-19T04:57:51;7.03;;;2.10;;
12312;SDS011;6220;53.580;9.758;2023-09-19T05:00:19;6.87;;;2.50;;
12312;SDS011;6220;53.580;9.758;2023-09-19T05:02:49;6.90;;;1.93;;
12312;SDS011;6220;53.580;9.758;2023-09-19T05:05:16;8.03;;;2.73;;
12312;SDS011;6220;53.580;9.758;2023-09-19T05:07:42;8.90;;;2.63;;
12312;SDS011;6220;53.580;9.758;2023-09-19T05:10:07;6.67;;;2.20;;
12312;SDS011;6220;53.580;9.758;2023-09-19T05:12:33;3.53;;;1.90;;
12312;SDS011;6220;53.580;9.758;2023-09-19T05:15:00;6.90;;;2.03;;
12312;SDS011;6220;53.580;9.758;2023-09-19T05:17:28;4.90;;;2.00;;
12312;SDS011;6220;53.580;9.758;2023-09-19T05:19:53;6.60;;;2.00;;
12312;SDS011;6220;53.580;9.758;2023-09-19T05:22:18;6.93;;;2.27;;
12312;SDS011;6220;53.580;9.758;2023-09-19T05:24:44;8.13;;;2.33;;
12312;SDS011;6220;53.580;9.758;2023-09-19T05:27:14;6.37;;;1.93;;
12312;SDS011;6220;53.580;9.758;2023-09-19T05:29:41;9.27;;;2.23;;
12312;SDS011;6220;53.580;9.758;2023-09-19T05:32:07;8.03;;;2.60;;
12312;SDS011;6220;53.580;9.758;2023-09-19T05:34:33;4.90;;;2.20;;
12312;SDS011;6220;53.580;9.758;2023-09-19T05:36:58;5.43;;;2.00;;
12312;SDS011;6220;53.580;9.758;2023-09-19T05:39:23;3.77;;;1.93;;
12312;SDS011;6220;53.580;9.758;2023-09-19T05:41:49;10.03;;;2.70;;
12312;SDS011;6220;53.580;9.758;2023-09-19T05:44:14;10.87;;;2.53;;
12312;SDS011;6220;53.580;9.758;2023-09-19T05:46:40;4.60;;;2.07;;
12312;SDS011;6220;53.580;9.758;2023-09-19T05:49:05;5.67;;;2.37;;
12312;SDS011;6220;53.580;9.758;2023-09-19T05:51:30;4.57;;;2.20;;
12312;SDS011;6220;53.580;9.758;2023-09-19T05:53:56;5.37;;;2.20;;
12312;SDS011;6220;53.580;9.758;2023-09-19T05:56:23;4.17;;;2.03;;
12312;SDS011;6220;53.580;9.758;2023-09-19T05:58:48;7.27;;;2.33;;
12312;SDS011;6220;53.580;9.758;2023-09-19T06:01:14;7.10;;;2.70;;
12312;SDS011;6220;53.580;9.758;2023-09-19T06:03:41;6.90;;;2.30;;
12312;SDS011;6220;53.580;9.758;2023-09-19T06:06:06;5.43;;;2.30;;
12312;SDS011;6220;53.580;9.758;2023-09-19T06:08:35;8.63;;;1.93;;
12312;SDS011;6220;53.580;9.758;2023-09-19T06:11:02;5.47;;;2.20;;
12312;SDS011;6220;53.580;9.758;2023-09-19T06:13:29;7.07;;;2.30;;
12312;SDS011;6220;53.580;9.758;2023-09-19T06:15:55;6.87;;;2.10;;
12312;SDS011;6220;53.580;9.758;2023-09-19T06:18:21;7.27;;;2.50;;
12312;SDS011;6220;53.580;9.758;2023-09-19T06:20:51;7.73;;;2.20;;
12312;SDS011;6220;53.580;9.758;2023-09-19T06:23:16;7.50;;;2.30;;
12312;SDS011;6220;53.580;9.758;2023-09-19T06:25:42;8.03;;;2.20;;
12312;SDS011;6220;53.580;9.758;2023-09-19T06:28:08;5.47;;;2.00;;
12312;SDS011;6220;53.580;9.758;2023-09-19T06:30:37;8.03;;;2.37;;
12312;SDS011;6220;53.580;9.758;2023-09-19T06:33:05;6.30;;;2.60;;
12312;SDS011;6220;53.580;9.758;2023-09-19T06:35:31;8.77;;;2.13;;
12312;SDS011;6220;53.580;9.758;2023-09-19T06:37:57;5.93;;;2.23;;
12312;SDS011;6220;53.580;9.758;2023-09-19T06:40:23;6.27;;;2.37;;
12312;SDS011;6220;53.580;9.758;2023-09-19T06:42:50;10.53;;;2.40;;
12312;SDS011;6220;53.580;9.758;2023-09-19T06:45:17;5.33;;;2.20;;
12312;SDS011;6220;53.580;9.758;2023-09-19T06:47:47;7.03;;;2.70;;
12312;SDS011;6220;53.580;9.758;2023-09-19T06:50:15;8.73;;;2.67;;
12312;SDS011;6220;53.580;9.758;2023-09-19T06:52:43;6.80;;;2.37;;
12312;SDS011;6220;53.580;9.758;2023-09-19T06:55:09;7.03;;;2.80;;
12312;SDS011;6220;53.580;9.758;2023-09-19T06:57:36;6.97;;;2.47;;
12312;SDS011;6220;53.580;9.758;2023-09-19T07:00:02;6.83;;;2.60;;
12312;SDS011;6220;53.580;9.758;2023-09-19T07:02:34;4.67;;;2.10;;
12312;SDS011;6220;53.580;9.758;2023-09-19T07:05:01;7.57;;;2.60;;
12312;SDS011;6220;53.580;9.758;2023-09-19T07:07:27;9.20;;;2.70;;
12312;SDS011;6220;53.580;9.758;2023-09-19T07:09:54;8.67;;;3.07;;
12312;SDS011;6220;53.580;9.758;2023-09-19T07:12:19;7.97;;;2.50;;
12312;SDS011;6220;53.580;9.758;2023-09-19T07:14:45;4.47;;;2.20;;
12312;SDS011;6220;53.580;9.758;2023-09-19T07:17:10;10.27;;;2.70;;
12312;SDS011;6220;53.580;9.758;2023-09-19T07:19:36;8.97;;;3.07;;
12312;SDS011;6220;53.580;9.758;2023-09-19T07:22:01;9.77;;;2.90;;
12312;SDS011;6220;53.580;9.758;2023-09-19T07:24:28;8.50;;;2.77;;
12312;SDS011;6220;53.580;9.758;2023-09-19T07:26:54;8.73;;;2.97;;
12312;SDS011;6220;53.580;9.758;2023-09-19T07:29:20;9.90;;;2.93;;
12312;SDS011;6220;53.580;9.758;2023-09-19T07:31:46;8.50;;;3.20;;
12312;SDS011;6220;53.580;9.758;2023-09-19T07:34:13;8.83;;;2.87;;
12312;SDS011;6220;53.580;9.758;2023-09-19T07:36:39;8.83;;;2.90;;
12312;SDS011;6220;53.580;9.758;2023-09-19T07:39:05;7.93;;;2.80;;
12312;SDS011;6220;53.580;9.758;2023-09-19T07:41:32;7.70;;;2.80;;
12312;SDS011;6220;53.580;9.758;2023-09-19T07:43:58;7.63;;;3.40;;
12312;SDS011;6220;53.580;9.758;2023-09-19T07:46:23;6.97;;;2.70;;
12312;SDS011;6220;53.580;9.758;2023-09-19T07:48:49;6.53;;;2.63;;
12312;SDS011;6220;53.580;9.758;2023-09-19T07:51:15;9.60;;;2.83;;
12312;SDS011;6220;53.580;9.758;2023-09-19T07:53:41;7.90;;;3.33;;
12312;SDS011;6220;53.580;9.758;2023-09-19T07:56:07;7.13;;;2.87;;
12312;SDS011;6220;53.580;9.758;2023-09-19T07:58:34;5.63;;;2.67;;
12312;SDS011;6220;53.580;9.758;2023-09-19T08:01:06;8.23;;;2.73;;
12312;SDS011;6220;53.580;9.758;2023-09-19T08:03:33;8.77;;;2.80;;
12312;SDS011;6220;53.580;9.758;2023-09-19T08:05:59;7.43;;;2.67;;
12312;SDS011;6220;53.580;9.758;2023-09-19T08:08:26;7.40;;;2.93;;
12312;SDS011;6220;53.580;9.758;2023-09-19T08:10:53;9.13;;;2.90;;
12312;SDS011;6220;53.580;9.758;2023-09-19T08:13:25;12.40;;;3.30;;
12312;SDS011;6220;53.580;9.758;2023-09-19T08:15:52;7.80;;;2.70;;
12312;SDS011;6220;53.580;9.758;2023-09-19T08:18:21;9.93;;;3.40;;
12312;SDS011;6220;53.580;9.758;2023-09-19T08:20:53;11.43;;;2.93;;
12312;SDS011;6220;53.580;9.758;2023-09-19T08:23:18;7.63;;;2.40;;
12312;SDS011;6220;53.580;9.758;2023-09-19T08:25:46;9.47;;;3.30;;
12312;SDS011;6220;53.580;9.758;2023-09-19T08:28:12;9.47;;;3.20;;
12312;SDS011;6220;53.580;9.758;2023-09-19T08:30:39;12.13;;;3.30;;
12312;SDS011;6220;53.580;9.758;2023-09-19T08:33:06;14.97;;;3.90;;
12312;SDS011;6220;53.580;9.758;2023-09-19T08:35:32;8.07;;;3.00;;
12312;SDS011;6220;53.580;9.758;2023-09-19T08:37:58;7.57;;;3.07;;
12312;SDS011;6220;53.580;9.758;2023-09-19T08:40:25;9.10;;;3.03;;
12312;SDS011;6220;53.580;9.758;2023-09-19T08:42:55;12.07;;;2.73;;
12312;SDS011;6220;53.580;9.758;2023-09-19T08:45:21;11.97;;;3.40;;
12312;SDS011;6220;53.580;9.758;2023-09-19T08:50:49;8.77;;;3.23;;
12312;SDS011;6220;53.580;9.758;2023-09-19T08:53:18;12.30;;;3.20;;
12312;SDS011;6220;53.580;9.758;2023-09-19T08:55:48;11.17;;;3.50;;
12312;SDS011;6220;53.580;9.758;2023-09-19T08:58:16;14.77;;;3.10;;
12312;SDS011;6220;53.580;9.758;2023-09-19T09:00:45;8.30;;;3.00;;
12312;SDS011;6220;53.580;9.758;2023-09-19T09:03:15;7.80;;;3.00;;
12312;SDS011;6220;53.580;9.758;2023-09-19T09:05:44;12.20;;;3.37;;
12312;SDS011;6220;53.580;9.758;2023-09-19T09:08:12;8.70;;;2.87;;
12312;SDS011;6220;53.580;9.758;2023-09-19T09:10:38;9.00;;;2.97;;
12312;SDS011;6220;53.580;9.758;2023-09-19T09:13:05;9.70;;;3.03;;
12312;SDS011;6220;53.580;9.758;2023-09-19T09:15:31;9.00;;;2.67;;
12312;SDS011;6220;53.580;9.758;2023-09-19T09:18:00;8.00;;;2.87;;
12312;SDS011;6220;53.580;9.758;2023-09-19T09:20:26;8.43;;;2.70;;
12312;SDS011;6220;53.580;9.758;2023-09-19T09:22:52;9.83;;;2.83;;
12312;SDS011;6220;53.580;9.758;2023-09-19T09:25:19;8.70;;;2.77;;
12312;SDS011;6220;53.580;9.758;2023-09-19T09:28:10;12.43;;;3.20;;
12312;SDS011;6220;53.580;9.758;2023-09-19T09:30:35;12.27;;;3.20;;
12312;SDS011;6220;53.580;9.758;2023-09-19T09:33:11;8.37;;;2.87;;
12312;SDS011;6220;53.580;9.758;2023-09-19T09:35:46;13.93;;;3.30;;
12312;SDS011;6220;53.580;9.758;2023-09-19T09:38:43;9.57;;;2.67;;
12312;SDS011;6220;53.580;9.758;2023-09-19T09:41:09;7.43;;;2.43;;
12312;SDS011;6220;53.580;9.758;2023-09-19T09:43:35;7.37;;;2.87;;
12312;SDS011;6220;53.580;9.758;2023-09-19T09:48:58;12.40;;;2.57;;
12312;SDS011;6220;53.580;9.758;2023-09-19T09:51:40;11.93;;;2.80;;
12312;SDS011;6220;53.580;9.758;2023-09-19T09:54:57;10.90;;;3.37;;
12312;SDS011;6220;53.580;9.758;2023-09-19T09:57:02;9.60;;;3.17;;
12312;SDS011;6220;53.580;9.758;2023-09-19T10:02:27;7.83;;;2.73;;
12312;SDS011;6220;53.580;9.758;2023-09-19T10:05:10;9.33;;;3.17;;
12312;SDS011;6220;53.580;9.758;2023-09-19T10:07:52;9.07;;;3.13;;
12312;SDS011;6220;53.580;9.758;2023-09-19T10:13:18;6.63;;;2.63;;
12312;SDS011;6220;53.580;9.758;2023-09-19T10:15:51;11.73;;;3.10;;
12312;SDS011;6220;53.580;9.758;2023-09-19T10:18:25;8.63;;;2.83;;
12312;SDS011;6220;53.580;9.758;2023-09-19T10:20:54;8.70;;;2.40;;
12312;SDS011;6220;53.580;9.758;2023-09-19T10:23:20;14.30;;;3.40;;
12312;SDS011;6220;53.580;9.758;2023-09-19T10:25:52;17.63;;;4.13;;
12312;SDS011;6220;53.580;9.758;2023-09-19T10:28:18;9.67;;;3.07;;
12312;SDS011;6220;53.580;9.758;2023-09-19T10:30:48;5.63;;;2.23;;
12312;SDS011;6220;53.580;9.758;2023-09-19T10:33:18;8.00;;;3.00;;
12312;SDS011;6220;53.580;9.758;2023-09-19T10:35:48;8.80;;;3.10;;
12312;SDS011;6220;53.580;9.758;2023-09-19T10:38:17;14.77;;;3.53;;
12312;SDS011;6220;53.580;9.758;2023-09-19T10:40:48;6.13;;;2.27;;
12312;SDS011;6220;53.580;9.758;2023-09-19T10:43:22;8.77;;;2.43;;
12312;SDS011;6220;53.580;9.758;2023-09-19T10:45:50;9.90;;;2.77;;
12312;SDS011;6220;53.580;9.758;2023-09-19T10:48:17;8.43;;;2.10;;
12312;SDS011;6220;53.580;9.758;2023-09-19T10:51:04;7.60;;;2.30;;
12312;SDS011;6220;53.580;9.758;2023-09-19T10:53:43;5.70;;;2.57;;
12312;SDS011;6220;53.580;9.758;2023-09-19T10:56:15;6.30;;;2.60;;
12312;SDS011;6220;53.580;9.758;2023-09-19T10:59:07;6.20;;;3.20;;
12312;SDS011;6220;53.580;9.758;2023-09-19T11:01:43;8.73;;;3.13;;
12312;SDS011;6220;53.580;9.758;2023-09-19T11:04:31;10.17;;;3.73;;
12312;SDS011;6220;53.580;9.758;2023-09-19T11:07:01;11.53;;;3.97;;
12312;SDS011;6220;53.580;9.758;2023-09-19T11:09:49;8.50;;;3.87;;
12312;SDS011;6220;53.580;9.758;2023-09-19T11:15:06;8.33;;;3.20;;
12312;SDS011;6220;53.580;9.758;2023-09-19T11:17:36;7.53;;;2.87;;
12312;SDS011;6220;53.580;9.758;2023-09-19T11:20:18;8.03;;;3.00;;
12312;SDS011;6220;53.580;9.758;2023-09-19T11:30:42;8.50;;;2.50;;
12312;SDS011;6220;53.580;9.758;2023-09-19T11:33:22;5.57;;;2.30;;
12312;SDS011;6220;53.580;9.758;2023-09-19T11:36:13;6.47;;;2.90;;
12312;SDS011;6220;53.580;9.758;2023-09-19T11:43:49;7.97;;;2.43;;
12312;SDS011;6220;53.580;9.758;2023-09-19T11:46:23;7.63;;;2.40;;
12312;SDS011;6220;53.580;9.758;2023-09-19T11:48:49;9.13;;;2.57;;
12312;SDS011;6220;53.580;9.758;2023-09-19T11:51:19;8.00;;;2.57;;
12312;SDS011;6220;53.580;9.758;2023-09-19T11:53:55;6.70;;;2.47;;
12312;SDS011;6220;53.580;9.758;2023-09-19T11:56:26;7.87;;;2.60;;
12312;SDS011;6220;53.580;9.758;2023-09-19T11:58:57;8.80;;;2.47;;
12312;SDS011;6220;53.580;9.758;2023-09-19T12:01:32;6.30;;;2.63;;
12312;SDS011;6220;53.580;9.758;2023-09-19T12:04:00;10.47;;;2.90;;
12312;SDS011;6220;53.580;9.758;2023-09-19T12:06:27;7.07;;;2.40;;
12312;SDS011;6220;53.580;9.758;2023-09-19T12:08:54;6.17;;;2.80;;
12312;SDS011;6220;53.580;9.758;2023-09-19T12:11:20;8.27;;;2.90;;
12312;SDS011;6220;53.580;9.758;2023-09-19T12:13:48;10.40;;;3.20;;
12312;SDS011;6220;53.580;9.758;2023-09-19T12:16:18;12.67;;;3.17;;
12312;SDS011;6220;53.580;9.758;2023-09-19T12:18:47;9.20;;;3.17;;
12312;SDS011;6220;53.580;9.758;2023-09-19T12:26:44;8.20;;;2.90;;
12312;SDS011;6220;53.580;9.758;2023-09-19T12:29:13;9.00;;;2.80;;
12312;SDS011;6220;53.580;9.758;2023-09-19T12:34:32;8.77;;;2.70;;
12312;SDS011;6220;53.580;9.758;2023-09-19T12:39:48;8.93;;;2.60;;
12312;SDS011;6220;53.580;9.758;2023-09-19T12:42:17;10.63;;;3.37;;
12312;SDS011;6220;53.580;9.758;2023-09-19T12:44:45;7.33;;;3.13;;
12312;SDS011;6220;53.580;9.758;2023-09-19T12:47:14;7.43;;;2.60;;
12312;SDS011;6220;53.580;9.758;2023-09-19T12:52:46;7.30;;;3.70;;
12312;SDS011;6220;53.580;9.758;2023-09-19T12:55:19;8.50;;;3.43;;
12312;SDS011;6220;53.580;9.758;2023-09-19T13:00:33;7.27;;;2.67;;
12312;SDS011;6220;53.580;9.758;2023-09-19T13:03:12;7.70;;;2.90;;
12312;SDS011;6220;53.580;9.758;2023-09-19T13:06:14;4.97;;;2.70;;
12312;SDS011;6220;53.580;9.758;2023-09-19T13:08:35;8.10;;;3.30;;
12312;SDS011;6220;53.580;9.758;2023-09-19T13:11:15;9.67;;;3.43;;
12312;SDS011;6220;53.580;9.758;2023-09-19T13:14:12;8.50;;;3.23;;
12312;SDS011;6220;53.580;9.758;2023-09-19T13:19:34;4.80;;;2.80;;
12312;SDS011;6220;53.580;9.758;2023-09-19T13:22:00;7.43;;;3.10;;
12312;SDS011;6220;53.580;9.758;2023-09-19T13:24:27;9.50;;;2.40;;
12312;SDS011;6220;53.580;9.758;2023-09-19T13:26:54;7.07;;;2.77;;
12312;SDS011;6220;53.580;9.758;2023-09-19T13:29:20;6.57;;;3.27;;
12312;SDS011;6220;53.580;9.758;2023-09-19T13:31:49;8.57;;;3.23;;
12312;SDS011;6220;53.580;9.758;2023-09-19T13:34:21;8.10;;;3.10;;
12312;SDS011;6220;53.580;9.758;2023-09-19T13:36:46;6.60;;;2.50;;
12312;SDS011;6220;53.580;9.758;2023-09-19T13:39:13;5.63;;;2.60;;
12312;SDS011;6220;53.580;9.758;2023-09-19T13:41:40;6.83;;;2.47;;
12312;SDS011;6220;53.580;9.758;2023-09-19T13:44:06;8.73;;;3.00;;
12312;SDS011;6220;53.580;9.758;2023-09-19T13:46:31;8.10;;;2.93;;
12312;SDS011;6220;53.580;9.758;2023-09-19T13:49:00;7.27;;;2.73;;
12312;SDS011;6220;53.580;9.758;2023-09-19T13:51:28;7.53;;;2.70;;
12312;SDS011;6220;53.580;9.758;2023-09-19T13:53:55;5.17;;;2.40;;
12312;SDS011;6220;53.580;9.758;2023-09-19T13:56:20;8.23;;;3.17;;
12312;SDS011;6220;53.580;9.758;2023-09-19T13:58:45;6.87;;;2.67;;
12312;SDS011;6220;53.580;9.758;2023-09-19T14:01:11;5.23;;;2.70;;
12312;SDS011;6220;53.580;9.758;2023-09-19T14:03:40;6.10;;;2.40;;
12312;SDS011;6220;53.580;9.758;2023-09-19T14:06:11;5.63;;;2.33;;
12312;SDS011;6220;53.580;9.758;2023-09-19T14:08:37;5.20;;;2.60;;
12312;SDS011;6220;53.580;9.758;2023-09-19T14:11:07;10.37;;;2.90;;
12312;SDS011;6220;53.580;9.758;2023-09-19T14:13:32;10.80;;;3.57;;
12312;SDS011;6220;53.580;9.758;2023-09-19T14:16:02;6.60;;;2.80;;
12312;SDS011;6220;53.580;9.758;2023-09-19T14:18:34;7.20;;;3.03;;
12312;SDS011;6220;53.580;9.758;2023-09-19T14:21:02;5.97;;;2.77;;
12312;SDS011;6220;53.580;9.758;2023-09-19T14:23:28;8.40;;;2.70;;
12312;SDS011;6220;53.580;9.758;2023-09-19T14:25:54;9.03;;;2.47;;
12312;SDS011;6220;53.580;9.758;2023-09-19T14:28:19;9.93;;;3.23;;
12312;SDS011;6220;53.580;9.758;2023-09-19T14:30:44;8.90;;;2.70;;
12312;SDS011;6220;53.580;9.758;2023-09-19T14:33:11;9.13;;;3.50;;
12312;SDS011;6220;53.580;9.758;2023-09-19T14:35:36;12.70;;;2.40;;
12312;SDS011;6220;53.580;9.758;2023-09-19T14:38:03;5.40;;;2.60;;
12312;SDS011;6220;53.580;9.758;2023-09-19T14:40:28;8.60;;;2.63;;
12312;SDS011;6220;53.580;9.758;2023-09-19T14:42:54;8.17;;;2.70;;
12312;SDS011;6220;53.580;9.758;2023-09-19T14:45:21;8.60;;;2.97;;
12312;SDS011;6220;53.580;9.758;2023-09-19T14:47:47;9.00;;;3.17;;
12312;SDS011;6220;53.580;9.758;2023-09-19T14:50:14;9.33;;;2.93;;
12312;SDS011;6220;53.580;9.758;2023-09-19T14:52:40;10.03;;;3.13;;
12312;SDS011;6220;53.580;9.758;2023-09-19T14:55:06;7.77;;;2.90;;
12312;SDS011;6220;53.580;9.758;2023-09-19T14:57:34;10.80;;;2.90;;
12312;SDS011;6220;53.580;9.758;2023-09-19T14:59:59;5.60;;;2.43;;
12312;SDS011;6220;53.580;9.758;2023-09-19T15:02:25;7.83;;;2.70;;
12312;SDS011;6220;53.580;9.758;2023-09-19T15:04:51;9.87;;;2.87;;
12312;SDS011;6220;53.580;9.758;2023-09-19T15:07:17;6.33;;;2.43;;
12312;SDS011;6220;53.580;9.758;2023-09-19T15:09:42;7.80;;;2.73;;
12312;SDS011;6220;53.580;9.758;2023-09-19T15:12:08;11.63;;;2.90;;
12312;SDS011;6220;53.580;9.758;2023-09-19T15:14:34;5.60;;;2.40;;
12312;SDS011;6220;53.580;9.758;2023-09-19T15:16:59;8.10;;;2.70;;
12312;SDS011;6220;53.580;9.758;2023-09-19T15:19:25;7.57;;;2.73;;
12312;SDS011;6220;53.580;9.758;2023-09-19T15:21:50;8.43;;;2.77;;
12312;SDS011;6220;53.580;9.758;2023-09-19T15:24:15;8.43;;;3.20;;
12312;SDS011;6220;53.580;9.758;2023-09-19T15:26:43;12.47;;;3.27;;
12312;SDS011;6220;53.580;9.758;2023-09-19T15:29:09;6.30;;;2.30;;
12312;SDS011;6220;53.580;9.758;2023-09-19T15:31:35;9.97;;;2.60;;
12312;SDS011;6220;53.580;9.758;2023-09-19T15:34:01;9.57;;;2.37;;
12312;SDS011;6220;53.580;9.758;2023-09-19T15:36:27;8.00;;;3.17;;
12312;SDS011;6220;53.580;9.758;2023-09-19T15:41:36;8.00;;;2.67;;
12312;SDS011;6220;53.580;9.758;2023-09-19T15:44:13;8.17;;;2.40;;
12312;SDS011;6220;53.580;9.758;2023-09-19T15:46:40;8.37;;;2.77;;
12312;SDS011;6220;53.580;9.758;2023-09-19T15:49:06;7.53;;;2.57;;
12312;SDS011;6220;53.580;9.758;2023-09-19T15:51:32;8.73;;;2.80;;
12312;SDS011;6220;53.580;9.758;2023-09-19T15:53:57;8.53;;;2.40;;
12312;SDS011;6220;53.580;9.758;2023-09-19T15:56:25;8.53;;;2.70;;
12312;SDS011;6220;53.580;9.758;2023-09-19T15:58:51;9.40;;;3.00;;
12312;SDS011;6220;53.580;9.758;2023-09-19T16:01:18;6.43;;;2.40;;
12312;SDS011;6220;53.580;9.758;2023-09-19T16:03:45;6.70;;;2.67;;
12312;SDS011;6220;53.580;9.758;2023-09-19T16:06:12;8.63;;;2.97;;
12312;SDS011;6220;53.580;9.758;2023-09-19T16:08:42;6.33;;;2.40;;
12312;SDS011;6220;53.580;9.758;2023-09-19T16:11:15;11.50;;;2.50;;